Airport View

Enter ICAO identifier to see the current METAR for that AWOS.

KFNL for example

KSLI 292158Z 20010KT 10SM CLR 27/18 A2983 RMK AO2A SLP104 T02680177

29 Aug 2014 22:22

Other Area AWOS: KLGB - KFUL - KSNA - KTOA

TAF KSLI 2921/3103 18009KT 9999 SKC QNH2980INS BECMG 3002/3003 VRB06KT 9999 FEW200 QNH2982INS TEMPO 3010/3018 6000 BR SCT010 BECMG 3021/3022 21012KT 9999 FEW100 SCT200 QNH2977INS BECMG 3101/3102 VRB06KT 9999 SCT150 BKN200 QNH2979INS TX29/3022Z TN19/3013Z